createdAt,value
2023-03-29T00:06:30.957Z,62.00
2023-03-29T00:16:37.341Z,66.00
2023-03-29T00:26:43.448Z,60.00
2023-03-29T00:36:49.795Z,60.00
2023-03-29T00:46:55.863Z,58.00
2023-03-29T00:57:02.075Z,56.00
2023-03-29T01:07:08.245Z,58.00
2023-03-29T01:17:13.994Z,54.00
2023-03-29T01:27:19.551Z,58.00
2023-03-29T01:37:25.003Z,58.00
2023-03-29T01:47:30.670Z,58.00
2023-03-29T01:57:36.367Z,58.00
2023-03-29T02:07:41.525Z,52.00
2023-03-29T02:17:46.999Z,52.00
2023-03-29T02:27:52.382Z,54.00
2023-03-29T02:37:57.889Z,54.00
2023-03-29T02:48:03.464Z,54.00
2023-03-29T02:58:08.979Z,56.00
2023-03-29T03:08:14.665Z,48.00
2023-03-29T03:18:20.111Z,48.00
2023-03-29T03:28:25.709Z,48.00
2023-03-29T03:38:31.475Z,50.00
2023-03-29T03:48:37.284Z,54.00
2023-03-29T03:58:42.890Z,52.00
2023-03-29T04:08:48.290Z,54.00
2023-03-29T04:18:53.956Z,52.00
2023-03-29T04:28:59.908Z,60.00
2023-03-29T04:39:05.569Z,60.00
2023-03-29T04:49:11.033Z,60.00
2023-03-29T04:59:10.930Z,54.00
2023-03-29T05:09:17.760Z,62.00
2023-03-29T05:19:25.712Z,62.00
2023-03-29T05:29:31.800Z,60.00
2023-03-29T05:39:38.028Z,66.00
2023-03-29T05:49:44.117Z,66.00
2023-03-29T05:59:50.054Z,64.00
2023-03-29T06:09:55.837Z,54.00
2023-03-29T06:20:01.902Z,60.00
2023-03-29T06:30:07.644Z,54.00
2023-03-29T06:40:13.054Z,60.00
2023-03-29T06:50:18.733Z,56.00
2023-03-29T07:00:24.320Z,58.00
2023-03-29T07:10:30.089Z,62.00
2023-03-29T07:20:36.432Z,62.00
2023-03-29T07:30:42.626Z,62.00
2023-03-29T07:40:48.962Z,62.00
2023-03-29T07:50:54.932Z,66.00
2023-03-29T08:01:01.232Z,64.00
2023-03-29T08:11:06.883Z,62.00
2023-03-29T08:21:13.238Z,66.00
2023-03-29T08:31:19.524Z,62.00
2023-03-29T08:41:25.871Z,68.00
2023-03-29T08:51:32.052Z,66.00
2023-03-29T09:01:38.288Z,62.00
2023-03-29T09:11:44.534Z,62.00
2023-03-29T09:21:50.597Z,62.00
2023-03-29T09:31:56.611Z,62.00
2023-03-29T09:42:02.339Z,62.00
2023-03-29T09:52:08.823Z,62.00
2023-03-29T10:02:15.259Z,70.00
2023-03-29T10:12:21.322Z,62.00
2023-03-29T10:22:27.333Z,62.00
2023-03-29T10:32:33.436Z,62.00
2023-03-29T10:42:40.134Z,62.00
2023-03-29T10:52:46.479Z,62.00
2023-03-29T11:02:52.515Z,62.00
2023-03-29T11:12:58.845Z,62.00
2023-03-29T11:23:04.529Z,64.00
2023-03-29T11:33:10.530Z,62.00
2023-03-29T11:43:16.211Z,62.00
2023-03-29T11:53:22.239Z,62.00
2023-03-29T12:03:28.085Z,62.00
2023-03-29T12:13:34.481Z,66.00
2023-03-29T12:23:40.349Z,64.00
2023-03-29T12:33:46.338Z,70.00
2023-03-29T12:43:52.533Z,62.00
2023-03-29T12:53:58.763Z,70.00
2023-03-29T13:04:04.792Z,62.00
2023-03-29T13:14:10.968Z,62.00
2023-03-29T13:24:16.602Z,66.00
2023-03-29T13:34:23.800Z,62.00
2023-03-29T13:44:29.161Z,60.00
2023-03-29T13:54:34.980Z,66.00
2023-03-29T14:04:40.904Z,64.00
2023-03-29T14:16:06.025Z,64.00
2023-03-29T14:26:11.293Z,64.00
2023-03-29T14:36:17.024Z,64.00
2023-03-29T14:46:23.282Z,60.00
2023-03-29T14:56:28.692Z,60.00
2023-03-29T15:06:34.334Z,62.00
2023-03-29T15:16:39.570Z,64.00
2023-03-29T15:26:45.096Z,60.00
2023-03-29T15:36:51.135Z,60.00
2023-03-29T15:46:57.277Z,62.00
2023-03-29T15:57:02.892Z,60.00
2023-03-29T16:07:08.471Z,60.00
2023-03-29T16:17:13.858Z,60.00
2023-03-29T16:27:19.497Z,60.00
2023-03-29T16:37:31.199Z,62.00
2023-03-29T16:47:36.754Z,60.00
2023-03-29T16:57:42.413Z,60.00
2023-03-29T17:07:47.813Z,62.00
2023-03-29T17:17:54.880Z,62.00
2023-03-29T17:28:00.212Z,58.00
2023-03-29T17:38:06.113Z,64.00
2023-03-29T17:48:11.595Z,58.00
2023-03-29T17:58:17.360Z,62.00
2023-03-29T18:08:24.506Z,62.00
2023-03-29T18:18:30.653Z,58.00
2023-03-29T18:28:38.807Z,60.00
2023-03-29T18:38:46.356Z,56.00
2023-03-29T18:48:52.309Z,58.00
2023-03-29T18:58:58.382Z,62.00
2023-03-29T19:09:06.871Z,62.00
2023-03-29T19:19:12.265Z,58.00
2023-03-29T19:29:18.408Z,60.00
2023-03-29T19:39:24.374Z,60.00
2023-03-29T19:49:30.056Z,58.00
2023-03-29T19:59:36.193Z,62.00
2023-03-29T20:09:44.582Z,60.00
2023-03-29T20:19:49.657Z,62.00
2023-03-29T20:29:55.096Z,58.00
2023-03-29T20:40:01.311Z,58.00
2023-03-29T20:50:07.144Z,58.00
2023-03-29T21:00:12.645Z,58.00
2023-03-29T21:10:17.521Z,58.00
2023-03-29T21:20:24.902Z,64.00
2023-03-29T21:30:32.179Z,58.00
2023-03-29T21:40:38.181Z,64.00
2023-03-29T21:50:43.867Z,60.00
2023-03-29T22:00:49.767Z,56.00
2023-03-29T22:10:55.688Z,60.00
2023-03-29T22:21:01.356Z,50.00
2023-03-29T22:31:07.269Z,56.00
2023-03-29T22:41:13.184Z,50.00
2023-03-29T22:51:18.662Z,54.00
2023-03-29T23:01:23.886Z,54.00
2023-03-29T23:11:29.769Z,48.00
2023-03-29T23:21:35.200Z,52.00
2023-03-29T23:31:41.039Z,48.00
2023-03-29T23:41:46.703Z,54.00
2023-03-29T23:51:52.432Z,50.00
